Kristina — SFB8756 — position and weather

sailwx.info

Track history (hours):
 
Tides and Currents Weather Stations Pressure Air Temp Water Temp Dewpoint Dewpoint Depression Visibility Wind Speed Wind Dir Waves Ship Positions

Kristina

Last reported at 2015-May-03 21:22 UTC. Time now 2015-May-04 00:57 UTC.
Position N 55°29' E 014°17'.

Length 11 m; draft 2 m.

Type: Fishing. MMSI: 265630900.

Date/timePositionNaut miles runAvg speedWind from/ knotsBaromVisibWave heightAir tempDewpointWater temp
2015-May-03 21:22N 55°29' E 014°17'16 1.4
2015-May-03 10:11N 55°12' E 014°17'1 0.9
2015-May-03 09:22N 55°12' E 014°18'1 0.7
2015-May-03 08:27N 55°13' E 014°17'0 0.3
2015-May-03 07:15N 55°13' E 014°18'0 0.7
2015-May-03 06:31N 55°13' E 014°17'1 0.9
2015-May-03 05:27N 55°13' E 014°19'1 0.7
2015-May-03 04:22N 55°13' E 014°17'13 6.7
2015-May-03 02:22N 55°27' E 014°18'2 0.2
2015-May-02 16:33N 55°29' E 014°17'0 0.0
2015-May-02 15:03N 55°29' E 014°17'0 0.0
2015-May-02 14:33N 55°29' E 014°17'0 0.0
2015-May-02 13:33N 55°29' E 014°17'0 0.0
2015-May-02 12:33N 55°29' E 014°17'0 0.0
2015-May-02 11:33N 55°29' E 014°17'0 0.0
2015-May-02 10:33N 55°29' E 014°17'0 0.0
2015-May-02 09:33N 55°29' E 014°17'0 0.0
2015-May-02 08:33N 55°29' E 014°17'6 5.8
2015-May-02 07:33N 55°23' E 014°14'7 6.8
2015-May-02 06:33N 55°16' E 014°17'4 3.8
2015-May-02 05:32N 55°12' E 014°17'2 1.9
2015-May-02 04:33N 55°13' E 014°19'1 1.1
2015-May-02 03:18N 55°12' E 014°18'0 0.7
2015-May-02 02:33N 55°13' E 014°18'0 0.1
2015-May-02 01:33N 55°13' E 014°18'1 0.0
2015-May-01 03:10N 55°12' E 014°17'1 0.4
2015-May-01 01:27N 55°12' E 014°18'1 0.0
2015-Apr-29 05:29N 55°13' E 014°18'16 3.2
2015-Apr-29 00:33N 55°29' E 014°17'0 0.0
2015-Apr-28 23:33N 55°29' E 014°17'0 0.0
2015-Apr-28 22:33N 55°29' E 014°17'0 0.0
2015-Apr-28 21:32N 55°28' E 014°17'0 0.0
2015-Apr-28 20:33N 55°29' E 014°17'0 0.0
2015-Apr-28 19:33N 55°29' E 014°17'0 0.0
2015-Apr-28 18:33N 55°29' E 014°17'0 0.0
2015-Apr-28 17:18N 55°29' E 014°17'0 0.0
2015-Apr-28 16:14N 55°29' E 014°17'0 0.0
2015-Apr-28 15:33N 55°29' E 014°17'0 0.0
2015-Apr-28 14:32N 55°29' E 014°17'0 0.1
2015-Apr-28 13:33N 55°28' E 014°17'0 0.1
2015-Apr-28 12:33N 55°29' E 014°17'4 4.2
2015-Apr-28 11:33N 55°24' E 014°17'7 7.5
2015-Apr-28 10:33N 55°17' E 014°17'5 4.5
2015-Apr-28 09:34N 55°12' E 014°18'0 0.1
2015-Apr-28 08:33N 55°12' E 014°18'1 0.7
2015-Apr-28 07:33N 55°13' E 014°17'0 0.2
2015-Apr-28 06:33N 55°13' E 014°17'1 1.1
2015-Apr-28 05:33N 55°13' E 014°18'0 0.3
2015-Apr-28 04:33N 55°13' E 014°18'5 5.0
2015-Apr-28 03:33N 55°18' E 014°18'7 7.4
2015-Apr-28 02:33N 55°25' E 014°18'3 3.1
2015-Apr-28 01:33N 55°29' E 014°17'11 0.9
2015-Apr-27 12:13N 55°18' E 014°24'5 7.9
2015-Apr-27 11:33N 55°22' E 014°30'10 7.9
2015-Apr-27 10:16N 55°29' E 014°43'  
Track history (hours):
 
Tides and Currents Weather Stations Pressure Air Temp Water Temp Dewpoint Dewpoint Depression Visibility Wind Speed Wind Dir Waves Ship Positions

Kristina

Last reported at 2015-May-03 21:22 UTC. Time now 2015-May-04 00:57 UTC.
Position N 55°29' E 014°17'.

Length 11 m; draft 2 m.

Type: Fishing. MMSI: 265630900.

Date/timePositionNaut miles runAvg speedWind from/ knotsBaromVisibWave heightAir tempDewpointWater temp
2015-May-03 21:22N 55°29' E 014°17'16 1.4
2015-May-03 10:11N 55°12' E 014°17'1 0.9
2015-May-03 09:22N 55°12' E 014°18'1 0.7
2015-May-03 08:27N 55°13' E 014°17'0 0.3
2015-May-03 07:15N 55°13' E 014°18'0 0.7
2015-May-03 06:31N 55°13' E 014°17'1 0.9
2015-May-03 05:27N 55°13' E 014°19'1 0.7
2015-May-03 04:22N 55°13' E 014°17'13 6.7
2015-May-03 02:22N 55°27' E 014°18'2 0.2
2015-May-02 16:33N 55°29' E 014°17'0 0.0
2015-May-02 15:03N 55°29' E 014°17'0 0.0
2015-May-02 14:33N 55°29' E 014°17'0 0.0
2015-May-02 13:33N 55°29' E 014°17'0 0.0
2015-May-02 12:33N 55°29' E 014°17'0 0.0
2015-May-02 11:33N 55°29' E 014°17'0 0.0
2015-May-02 10:33N 55°29' E 014°17'0 0.0
2015-May-02 09:33N 55°29' E 014°17'0 0.0
2015-May-02 08:33N 55°29' E 014°17'6 5.8
2015-May-02 07:33N 55°23' E 014°14'7 6.8
2015-May-02 06:33N 55°16' E 014°17'4 3.8
2015-May-02 05:32N 55°12' E 014°17'2 1.9
2015-May-02 04:33N 55°13' E 014°19'1 1.1
2015-May-02 03:18N 55°12' E 014°18'0 0.7
2015-May-02 02:33N 55°13' E 014°18'0 0.1
2015-May-02 01:33N 55°13' E 014°18'1 0.0
2015-May-01 03:10N 55°12' E 014°17'1 0.4
2015-May-01 01:27N 55°12' E 014°18'1 0.0
2015-Apr-29 05:29N 55°13' E 014°18'16 3.2
2015-Apr-29 00:33N 55°29' E 014°17'0 0.0
2015-Apr-28 23:33N 55°29' E 014°17'0 0.0
2015-Apr-28 22:33N 55°29' E 014°17'0 0.0
2015-Apr-28 21:32N 55°28' E 014°17'0 0.0
2015-Apr-28 20:33N 55°29' E 014°17'0 0.0
2015-Apr-28 19:33N 55°29' E 014°17'0 0.0
2015-Apr-28 18:33N 55°29' E 014°17'0 0.0
2015-Apr-28 17:18N 55°29' E 014°17'0 0.0
2015-Apr-28 16:14N 55°29' E 014°17'0 0.0
2015-Apr-28 15:33N 55°29' E 014°17'0 0.0
2015-Apr-28 14:32N 55°29' E 014°17'0 0.1
2015-Apr-28 13:33N 55°28' E 014°17'0 0.1
2015-Apr-28 12:33N 55°29' E 014°17'4 4.2
2015-Apr-28 11:33N 55°24' E 014°17'7 7.5
2015-Apr-28 10:33N 55°17' E 014°17'5 4.5
2015-Apr-28 09:34N 55°12' E 014°18'0 0.1
2015-Apr-28 08:33N 55°12' E 014°18'1 0.7
2015-Apr-28 07:33N 55°13' E 014°17'0 0.2
2015-Apr-28 06:33N 55°13' E 014°17'1 1.1
2015-Apr-28 05:33N 55°13' E 014°18'0 0.3
2015-Apr-28 04:33N 55°13' E 014°18'5 5.0
2015-Apr-28 03:33N 55°18' E 014°18'7 7.4
2015-Apr-28 02:33N 55°25' E 014°18'3 3.1
2015-Apr-28 01:33N 55°29' E 014°17'11 0.9
2015-Apr-27 12:13N 55°18' E 014°24'5 7.9
2015-Apr-27 11:33N 55°22' E 014°30'10 7.9
2015-Apr-27 10:16N 55°29' E 014°43'  

Dump ship's entire track history